createdAt,value
2023-05-17T00:02:18.748Z,12.78
2023-05-17T00:04:48.845Z,12.75
2023-05-17T00:07:17.600Z,12.73
2023-05-17T00:09:46.504Z,12.73
2023-05-17T00:12:14.530Z,12.73
2023-05-17T00:14:42.666Z,12.72
2023-05-17T00:17:10.943Z,12.72
2023-05-17T00:19:39.242Z,12.70
2023-05-17T00:22:09.180Z,12.67
2023-05-17T00:24:37.398Z,12.66
2023-05-17T00:27:06.147Z,12.65
2023-05-17T00:29:34.256Z,12.66
2023-05-17T00:32:03.002Z,12.67
2023-05-17T00:34:31.812Z,12.71
2023-05-17T00:37:00.130Z,12.70
2023-05-17T00:39:29.776Z,12.71
2023-05-17T00:41:57.873Z,12.73
2023-05-17T00:44:38.875Z,12.73
2023-05-17T00:47:07.174Z,12.73
2023-05-17T00:49:35.633Z,12.71
2023-05-17T00:52:04.016Z,12.68
2023-05-17T00:54:35.407Z,12.68
2023-05-17T00:57:04.437Z,12.65
2023-05-17T00:59:37.569Z,12.64
2023-05-17T01:02:06.699Z,12.61
2023-05-17T01:04:34.979Z,12.56
2023-05-17T01:07:03.214Z,12.53
2023-05-17T01:09:32.008Z,12.49
2023-05-17T01:12:09.277Z,12.47
2023-05-17T01:14:48.663Z,12.48
2023-05-17T01:17:24.088Z,12.48
2023-05-17T01:20:02.355Z,12.49
2023-05-17T01:22:41.286Z,12.53
2023-05-17T01:25:43.930Z,12.56
2023-05-17T01:28:16.276Z,12.55
2023-05-17T01:30:46.426Z,12.55
2023-05-17T01:33:16.448Z,12.53
2023-05-17T01:35:44.868Z,12.52
2023-05-17T01:38:12.974Z,12.51
2023-05-17T01:40:49.479Z,12.51
2023-05-17T01:43:25.395Z,12.53
2023-05-17T01:46:01.976Z,12.54
2023-05-17T01:48:36.877Z,12.55
2023-05-17T01:51:06.170Z,12.55
2023-05-17T01:53:40.663Z,12.52
2023-05-17T01:59:00.707Z,12.48
2023-05-17T02:01:31.905Z,12.48
2023-05-17T02:04:00.008Z,12.47
2023-05-17T02:06:28.418Z,12.48
2023-05-17T02:08:56.574Z,12.49
2023-05-17T02:11:36.369Z,12.52
2023-05-17T02:14:05.920Z,12.52
2023-05-17T02:16:37.745Z,12.52
2023-05-17T02:19:07.553Z,12.51
2023-05-17T02:21:36.129Z,12.49
2023-05-17T02:24:04.287Z,12.50
2023-05-17T02:26:33.322Z,12.48
2023-05-17T02:29:01.589Z,12.46
2023-05-17T02:31:33.848Z,12.40
2023-05-17T02:34:02.046Z,12.38
2023-05-17T02:36:30.959Z,12.34
2023-05-17T02:38:59.493Z,12.29
2023-05-17T02:41:28.184Z,12.26
2023-05-17T02:43:56.567Z,12.26
2023-05-17T02:46:26.292Z,12.23
2023-05-17T02:48:55.921Z,12.23
2023-05-17T02:51:24.038Z,12.20
2023-05-17T02:53:52.528Z,12.18
2023-05-17T02:56:21.278Z,12.12
2023-05-17T02:58:49.328Z,12.06
2023-05-17T03:01:17.476Z,12.03
2023-05-17T03:03:46.255Z,12.03
2023-05-17T03:06:17.255Z,12.04
2023-05-17T03:08:45.474Z,12.04
2023-05-17T03:11:14.399Z,12.05
2023-05-17T03:13:42.528Z,12.05
2023-05-17T03:16:10.761Z,12.05
2023-05-17T03:18:39.214Z,12.07
2023-05-17T03:21:07.504Z,12.05
2023-05-17T03:23:37.142Z,11.84
2023-05-17T03:26:05.393Z,11.57
2023-05-17T03:28:33.577Z,11.30
2023-05-17T03:31:01.970Z,11.05
2023-05-17T03:33:36.918Z,10.93
2023-05-17T03:36:05.910Z,10.84
2023-05-17T03:38:34.132Z,10.79
2023-05-17T03:41:04.704Z,10.74
2023-05-17T03:43:33.675Z,10.68
2023-05-17T03:46:02.248Z,10.62
2023-05-17T03:48:36.465Z,10.57
2023-05-17T03:51:05.451Z,10.49
2023-05-17T03:53:33.915Z,10.44
2023-05-17T03:56:03.604Z,10.34
2023-05-17T03:58:31.686Z,10.24
2023-05-17T04:00:59.841Z,10.16
2023-05-17T04:03:28.015Z,10.13
2023-05-17T04:06:02.241Z,10.16
2023-05-17T04:08:30.540Z,10.15
2023-05-17T04:10:58.727Z,10.15
2023-05-17T04:13:28.240Z,10.15
2023-05-17T04:15:56.453Z,10.10
2023-05-17T04:18:24.818Z,10.05
2023-05-17T04:20:53.039Z,9.99
2023-05-17T04:23:21.261Z,10.01
2023-05-17T04:25:49.381Z,10.05
2023-05-17T04:28:17.966Z,10.11
2023-05-17T04:30:49.277Z,10.16
2023-05-17T04:33:18.177Z,10.15
2023-05-17T04:35:47.821Z,10.17
2023-05-17T04:38:16.401Z,10.19
2023-05-17T04:40:44.506Z,10.26
2023-05-17T04:43:12.684Z,10.32
2023-05-17T04:45:41.327Z,10.42
2023-05-17T04:48:12.841Z,10.47
2023-05-17T04:50:41.032Z,10.56
2023-05-17T04:53:09.910Z,10.74
2023-05-17T04:55:38.149Z,10.93
2023-05-17T04:58:06.334Z,11.16
2023-05-17T05:00:34.838Z,11.41
2023-05-17T05:03:05.007Z,11.62
2023-05-17T05:05:37.957Z,11.73
2023-05-17T05:08:06.249Z,11.89
2023-05-17T05:10:34.787Z,12.01
2023-05-17T05:13:03.065Z,12.05
2023-05-17T05:15:31.683Z,12.10
2023-05-17T05:18:00.339Z,12.13
2023-05-17T05:20:29.043Z,12.17
2023-05-17T05:22:58.968Z,12.14
2023-05-17T05:25:27.656Z,12.12
2023-05-17T05:27:56.441Z,12.15
2023-05-17T05:30:24.612Z,12.16
2023-05-17T05:32:53.377Z,12.18
2023-05-17T05:35:26.464Z,12.21
2023-05-17T05:37:55.087Z,12.21
2023-05-17T05:40:24.891Z,12.21
2023-05-17T05:42:53.634Z,12.20
2023-05-17T05:45:21.997Z,12.18
2023-05-17T05:47:50.784Z,12.17
2023-05-17T05:50:19.251Z,12.14
2023-05-17T05:52:47.696Z,12.09
2023-05-17T05:55:15.774Z,12.03
2023-05-17T05:57:45.712Z,12.00
2023-05-17T06:00:15.068Z,11.96
2023-05-17T06:02:43.188Z,11.93
2023-05-17T06:05:11.882Z,11.92
2023-05-17T06:07:40.080Z,11.88
2023-05-17T06:10:09.741Z,11.81
2023-05-17T06:12:37.893Z,11.69
2023-05-17T06:15:09.006Z,11.56
2023-05-17T06:17:37.413Z,11.41
2023-05-17T06:20:06.984Z,11.27
2023-05-17T06:22:35.104Z,11.19
2023-05-17T06:25:03.166Z,11.08
2023-05-17T06:27:32.832Z,10.95
2023-05-17T06:30:01.491Z,10.83
2023-05-17T06:32:31.161Z,10.80
2023-05-17T06:34:59.444Z,10.80
2023-05-17T06:37:27.599Z,10.82
2023-05-17T06:42:37.769Z,10.84
2023-05-17T06:45:07.483Z,10.80
2023-05-17T06:47:40.191Z,10.56
2023-05-17T06:50:09.910Z,10.31
2023-05-17T06:52:38.169Z,10.02
2023-05-17T06:55:07.601Z,9.70
2023-05-17T06:57:35.770Z,9.46
2023-05-17T07:00:06.731Z,9.20
2023-05-17T07:02:35.178Z,9.02
2023-05-17T07:05:04.996Z,8.96
2023-05-17T07:07:33.163Z,8.82
2023-05-17T07:10:01.434Z,8.83
2023-05-17T07:12:39.316Z,8.80
2023-05-17T07:15:08.410Z,8.79
2023-05-17T07:17:36.680Z,8.73
2023-05-17T07:20:07.364Z,8.58
2023-05-17T07:22:35.509Z,8.47
2023-05-17T07:25:03.608Z,8.39
2023-05-17T07:27:32.424Z,8.23
2023-05-17T07:30:00.576Z,8.11
2023-05-17T07:32:28.917Z,8.02
2023-05-17T07:34:57.106Z,7.97
2023-05-17T07:37:27.152Z,7.92
2023-05-17T07:39:55.412Z,7.96
2023-05-17T07:42:24.813Z,7.94
2023-05-17T07:44:54.663Z,7.94
2023-05-17T07:47:22.759Z,7.83
2023-05-17T07:49:51.453Z,7.79
2023-05-17T07:52:19.629Z,7.77
2023-05-17T07:54:49.315Z,7.74
2023-05-17T07:57:17.727Z,7.73
2023-05-17T07:59:46.175Z,7.67
2023-05-17T08:02:14.399Z,7.65
2023-05-17T08:04:43.214Z,7.70
2023-05-17T08:07:11.339Z,7.64
2023-05-17T08:09:40.326Z,7.60
2023-05-17T08:12:09.931Z,7.54
2023-05-17T08:14:39.079Z,7.54
2023-05-17T08:17:07.250Z,7.49
2023-05-17T08:19:37.397Z,7.46
2023-05-17T08:22:05.984Z,7.46
2023-05-17T08:24:34.154Z,7.47
2023-05-17T08:27:02.637Z,7.47
2023-05-17T08:29:38.787Z,7.40
2023-05-17T08:32:08.692Z,7.35
2023-05-17T08:34:36.794Z,7.30
2023-05-17T08:37:05.119Z,7.23
2023-05-17T08:39:34.004Z,7.20
2023-05-17T08:42:02.629Z,7.22
2023-05-17T08:44:33.695Z,7.32
2023-05-17T08:47:02.969Z,7.37
2023-05-17T08:49:33.398Z,7.45
2023-05-17T08:52:03.545Z,7.54
2023-05-17T08:54:32.130Z,7.65
2023-05-17T08:57:02.576Z,7.69
2023-05-17T08:59:34.034Z,7.74
2023-05-17T09:02:03.038Z,7.78
2023-05-17T09:04:31.740Z,7.77
2023-05-17T09:06:59.932Z,7.86
2023-05-17T09:09:28.877Z,7.86
2023-05-17T09:11:57.193Z,7.83
2023-05-17T09:14:25.386Z,7.80
2023-05-17T09:16:58.877Z,7.86
2023-05-17T09:19:27.159Z,7.95
2023-05-17T09:21:56.949Z,7.93
2023-05-17T09:24:39.634Z,7.89
2023-05-17T09:27:07.745Z,7.87
2023-05-17T09:29:37.059Z,7.87
2023-05-17T09:32:26.091Z,7.86
2023-05-17T09:34:56.454Z,7.87
2023-05-17T09:37:27.458Z,7.97
2023-05-17T09:39:56.387Z,8.03
2023-05-17T09:42:27.784Z,7.97
2023-05-17T09:45:00.301Z,7.88
2023-05-17T09:47:32.036Z,7.81
2023-05-17T09:50:03.870Z,7.80
2023-05-17T09:52:32.639Z,7.71
2023-05-17T09:55:01.978Z,7.64
2023-05-17T09:57:38.200Z,7.65
2023-05-17T10:00:09.662Z,7.75
2023-05-17T10:02:41.384Z,7.84
2023-05-17T10:05:13.270Z,7.92
2023-05-17T10:07:43.181Z,8.00
2023-05-17T10:10:14.337Z,8.14
2023-05-17T10:12:43.231Z,8.20
2023-05-17T10:15:16.293Z,8.29
2023-05-17T10:17:46.702Z,8.37
2023-05-17T10:20:17.804Z,8.54
2023-05-17T10:22:46.707Z,8.71
2023-05-17T10:25:17.242Z,8.73
2023-05-17T10:27:47.389Z,8.81
2023-05-17T10:30:16.834Z,8.85
2023-05-17T10:32:46.794Z,8.97
2023-05-17T10:35:16.941Z,8.97
2023-05-17T10:37:45.161Z,8.91
2023-05-17T10:40:14.415Z,8.83
2023-05-17T10:42:45.849Z,8.72
2023-05-17T10:45:14.893Z,8.58
2023-05-17T10:47:46.270Z,8.47
2023-05-17T10:50:29.359Z,8.43
2023-05-17T10:53:00.959Z,8.44
2023-05-17T10:55:41.337Z,8.39
2023-05-17T10:58:17.859Z,8.27
2023-05-17T11:00:48.314Z,8.17
2023-05-17T11:03:19.297Z,8.11
2023-05-17T11:06:23.935Z,8.11
2023-05-17T11:09:16.707Z,8.06
2023-05-17T11:12:06.205Z,8.01
2023-05-17T11:14:53.573Z,7.98
2023-05-17T11:17:23.146Z,7.96
2023-05-17T11:19:57.554Z,7.91
2023-05-17T11:22:27.857Z,7.91
2023-05-17T11:24:59.056Z,7.81
2023-05-17T11:27:29.123Z,7.75
2023-05-17T11:29:58.970Z,7.64
2023-05-17T11:32:30.808Z,7.58
2023-05-17T11:35:01.980Z,7.50
2023-05-17T11:37:34.823Z,7.47
2023-05-17T11:40:05.015Z,7.41
2023-05-17T11:42:38.308Z,7.29
2023-05-17T11:45:07.701Z,7.21
2023-05-17T11:47:42.036Z,7.19
2023-05-17T11:50:12.463Z,7.23
2023-05-17T11:52:42.457Z,7.24
2023-05-17T11:55:16.140Z,7.25
2023-05-17T11:57:45.428Z,7.26
2023-05-17T12:00:16.914Z,7.29
2023-05-17T12:02:45.175Z,7.32
2023-05-17T12:05:20.668Z,7.32
2023-05-17T12:07:50.467Z,7.26
2023-05-17T12:10:19.344Z,7.14
2023-05-17T12:12:47.535Z,7.02
2023-05-17T12:15:20.556Z,6.87
2023-05-17T12:17:51.666Z,6.71
2023-05-17T12:20:20.366Z,6.62
2023-05-17T12:22:56.768Z,6.56
2023-05-17T12:25:28.110Z,6.53
2023-05-17T12:28:14.728Z,6.48
2023-05-17T12:30:42.999Z,6.46
2023-05-17T12:33:11.692Z,6.42
2023-05-17T12:35:40.768Z,6.42
2023-05-17T12:38:11.564Z,6.41
2023-05-17T12:40:43.434Z,6.44
2023-05-17T12:43:12.303Z,6.44
2023-05-17T12:45:43.861Z,6.48
2023-05-17T12:48:13.512Z,6.57
2023-05-17T12:50:45.862Z,6.68
2023-05-17T12:53:17.852Z,6.89
2023-05-17T12:55:45.944Z,7.11
2023-05-17T12:58:14.122Z,7.40
2023-05-17T13:00:42.387Z,7.63
2023-05-17T13:03:11.771Z,7.83
2023-05-17T13:05:41.374Z,7.97
2023-05-17T13:08:24.644Z,8.18
2023-05-17T13:10:52.807Z,8.33
2023-05-17T13:13:22.551Z,8.47
2023-05-17T13:15:51.065Z,8.66
2023-05-17T13:18:21.464Z,8.87
2023-05-17T13:20:51.453Z,9.17
2023-05-17T13:23:19.651Z,9.44
2023-05-17T13:25:49.212Z,9.63
2023-05-17T13:28:17.325Z,9.91
2023-05-17T13:30:52.116Z,10.13
2023-05-17T13:33:43.133Z,10.25
2023-05-17T13:36:12.288Z,10.35
2023-05-17T13:38:40.484Z,10.38
2023-05-17T13:41:10.385Z,10.45
2023-05-17T13:43:38.490Z,10.50
2023-05-17T13:46:07.092Z,10.66
2023-05-17T13:48:42.766Z,10.87
2023-05-17T13:51:12.519Z,11.09
2023-05-17T13:53:41.617Z,11.27
2023-05-17T13:56:11.290Z,11.33
2023-05-17T13:58:39.422Z,11.24
2023-05-17T14:01:07.838Z,11.13
2023-05-17T14:03:36.354Z,11.09
2023-05-17T14:06:06.422Z,11.13
2023-05-17T14:08:35.336Z,11.10
2023-05-17T14:11:03.658Z,11.10
2023-05-17T14:13:34.150Z,11.16
2023-05-17T14:16:02.362Z,11.26
2023-05-17T14:18:31.517Z,11.31
2023-05-17T14:21:01.153Z,11.43
2023-05-17T14:23:29.464Z,11.62
2023-05-17T14:25:58.083Z,11.84
2023-05-17T14:28:26.155Z,12.06
2023-05-17T14:30:55.639Z,12.22
2023-05-17T14:33:24.094Z,12.25
2023-05-17T14:35:52.287Z,12.24
2023-05-17T14:38:22.429Z,12.25
2023-05-17T14:40:50.542Z,12.41
2023-05-17T14:43:20.297Z,12.57
2023-05-17T14:45:48.736Z,12.72
2023-05-17T14:48:19.923Z,13.06
2023-05-17T14:50:48.462Z,13.34
2023-05-17T14:53:16.708Z,13.63
2023-05-17T14:55:44.917Z,13.86
2023-05-17T14:58:13.851Z,14.13
2023-05-17T15:00:48.511Z,14.28
2023-05-17T15:03:22.199Z,14.55
2023-05-17T15:05:55.615Z,14.80
2023-05-17T15:08:23.858Z,14.95
2023-05-17T15:10:54.309Z,14.97
2023-05-17T15:13:36.987Z,14.99
2023-05-17T15:16:05.184Z,15.04
2023-05-17T15:18:34.849Z,14.86
2023-05-17T15:21:03.552Z,14.75
2023-05-17T15:23:31.708Z,14.50
2023-05-17T15:26:00.300Z,14.27
2023-05-17T15:28:37.489Z,14.21
2023-05-17T15:31:10.660Z,15.29
2023-05-17T15:33:42.634Z,16.68
2023-05-17T15:36:12.417Z,17.38
2023-05-17T15:38:41.831Z,17.05
2023-05-17T15:41:13.085Z,17.96
2023-05-17T15:43:42.527Z,18.02
2023-05-17T15:46:11.847Z,17.19
2023-05-17T15:48:42.731Z,16.71
2023-05-17T15:51:10.979Z,16.70
2023-05-17T15:53:40.040Z,17.21
2023-05-17T15:56:10.255Z,18.02
2023-05-17T15:58:38.734Z,19.04
2023-05-17T16:01:07.554Z,19.68
2023-05-17T16:03:35.857Z,20.31
2023-05-17T16:06:05.884Z,20.67
2023-05-17T16:08:34.052Z,20.98
2023-05-17T16:11:02.715Z,21.20
2023-05-17T16:13:31.118Z,21.28
2023-05-17T16:16:00.468Z,21.41
2023-05-17T16:18:29.367Z,21.77
2023-05-17T16:23:30.702Z,21.59
2023-05-17T16:25:58.895Z,21.51
2023-05-17T16:28:27.038Z,21.27
2023-05-17T16:31:01.433Z,21.02
2023-05-17T16:33:29.598Z,21.09
2023-05-17T16:35:59.079Z,20.91
2023-05-17T16:38:27.665Z,20.78
2023-05-17T16:40:57.585Z,20.81
2023-05-17T16:43:25.810Z,20.90
2023-05-17T16:45:55.071Z,20.66
2023-05-17T16:48:23.930Z,20.36
2023-05-17T16:50:52.345Z,20.26
2023-05-17T16:53:20.909Z,20.29
2023-05-17T16:55:49.074Z,20.32
2023-05-17T16:58:18.814Z,20.35
2023-05-17T17:00:47.380Z,20.36
2023-05-17T17:03:15.593Z,20.50
2023-05-17T17:05:43.862Z,20.41
2023-05-17T17:08:12.096Z,20.18
2023-05-17T17:10:44.090Z,20.30
2023-05-17T17:13:12.792Z,20.24
2023-05-17T17:15:42.374Z,20.24
2023-05-17T17:18:10.463Z,20.15
2023-05-17T17:20:38.751Z,20.11
2023-05-17T17:23:06.955Z,19.86
2023-05-17T17:25:35.273Z,19.87
2023-05-17T17:28:03.754Z,19.76
2023-05-17T17:30:32.124Z,19.59
2023-05-17T17:33:01.983Z,19.57
2023-05-17T17:35:30.842Z,19.47
2023-05-17T17:37:58.916Z,19.38
2023-05-17T17:40:27.545Z,19.41
2023-05-17T17:42:59.505Z,19.48
2023-05-17T17:45:28.528Z,19.46
2023-05-17T17:48:01.324Z,19.33
2023-05-17T17:50:30.168Z,19.25
2023-05-17T17:52:58.718Z,19.21
2023-05-17T17:55:27.007Z,19.08
2023-05-17T17:57:55.550Z,19.01
2023-05-17T18:00:24.160Z,18.95
2023-05-17T18:02:53.719Z,18.88
2023-05-17T18:05:23.370Z,18.82
2023-05-17T18:07:52.097Z,18.72
2023-05-17T18:10:20.544Z,18.68
2023-05-17T18:12:51.516Z,18.61
2023-05-17T18:15:20.018Z,18.43
2023-05-17T18:17:49.028Z,18.39
2023-05-17T18:20:17.622Z,18.32
2023-05-17T18:22:48.070Z,17.76
2023-05-17T18:25:16.271Z,17.29
2023-05-17T18:27:44.802Z,17.02
2023-05-17T18:30:13.850Z,16.72
2023-05-17T18:32:42.105Z,16.33
2023-05-17T18:35:10.590Z,16.24
2023-05-17T18:37:38.886Z,16.31
2023-05-17T18:40:09.874Z,16.29
2023-05-17T18:42:38.398Z,15.95
2023-05-17T18:45:09.197Z,15.50
2023-05-17T18:47:37.978Z,15.11
2023-05-17T18:50:06.828Z,14.63
2023-05-17T18:52:34.950Z,14.20
2023-05-17T18:55:03.186Z,13.81
2023-05-17T18:57:33.205Z,13.47
2023-05-17T19:00:01.769Z,13.20
2023-05-17T19:02:30.353Z,12.96
2023-05-17T19:04:58.499Z,12.74
2023-05-17T19:07:26.710Z,12.55
2023-05-17T19:09:54.992Z,12.38
2023-05-17T19:12:23.233Z,12.23
2023-05-17T19:14:52.761Z,12.08
2023-05-17T19:17:36.902Z,11.91
2023-05-17T19:20:05.581Z,11.77
2023-05-17T19:22:35.887Z,11.64
2023-05-17T19:25:04.498Z,11.50
2023-05-17T19:27:32.607Z,11.39
2023-05-17T19:30:02.162Z,11.26
2023-05-17T19:32:33.262Z,11.16
2023-05-17T19:35:02.366Z,11.03
2023-05-17T19:37:30.545Z,10.93
2023-05-17T19:39:59.946Z,10.86
2023-05-17T19:42:28.545Z,10.80
2023-05-17T19:44:58.428Z,10.69
2023-05-17T19:47:27.908Z,10.62
2023-05-17T19:49:56.233Z,10.54
2023-05-17T19:52:24.282Z,10.45
2023-05-17T19:54:52.786Z,10.39
2023-05-17T19:57:20.919Z,10.31
2023-05-17T19:59:51.477Z,10.22
2023-05-17T20:02:20.565Z,10.15
2023-05-17T20:04:51.048Z,10.08
2023-05-17T20:07:25.515Z,10.02
2023-05-17T20:09:54.334Z,9.94
2023-05-17T20:12:24.199Z,9.88
2023-05-17T20:14:52.336Z,9.81
2023-05-17T20:17:20.612Z,9.72
2023-05-17T20:20:12.409Z,9.63
2023-05-17T20:22:42.717Z,9.57
2023-05-17T20:25:11.827Z,9.49
2023-05-17T20:27:39.963Z,9.44
2023-05-17T20:30:09.318Z,9.39
2023-05-17T20:32:37.483Z,9.35
2023-05-17T20:35:08.065Z,9.32
2023-05-17T20:37:36.276Z,9.28
2023-05-17T20:42:53.874Z,9.26
2023-05-17T20:45:24.349Z,9.25
2023-05-17T20:47:56.363Z,9.23
2023-05-17T20:50:29.446Z,9.23
2023-05-17T20:52:57.772Z,9.23
2023-05-17T20:55:25.966Z,9.22
2023-05-17T20:57:54.536Z,9.22
2023-05-17T21:00:23.385Z,9.21
2023-05-17T21:02:52.234Z,9.19
2023-05-17T21:05:20.571Z,9.18
2023-05-17T21:08:08.477Z,9.17
2023-05-17T21:10:40.711Z,9.17
2023-05-17T21:13:09.650Z,9.17
2023-05-17T21:15:37.877Z,9.15
2023-05-17T21:18:06.877Z,9.16
2023-05-17T21:20:35.231Z,9.15
2023-05-17T21:23:04.709Z,9.15
2023-05-17T21:25:34.181Z,9.16
2023-05-17T21:28:02.310Z,9.15
2023-05-17T21:30:31.089Z,9.13
2023-05-17T21:32:59.523Z,9.12
2023-05-17T21:35:28.059Z,9.10
2023-05-17T21:37:56.131Z,9.08
2023-05-17T21:40:26.335Z,9.06
2023-05-17T21:42:54.452Z,9.05
2023-05-17T21:45:23.913Z,9.06
2023-05-17T21:47:54.596Z,9.05
2023-05-17T21:50:22.759Z,9.06
2023-05-17T21:52:51.002Z,9.08
2023-05-17T21:55:19.228Z,9.08
2023-05-17T21:57:48.786Z,9.09
2023-05-17T22:00:17.636Z,9.09
2023-05-17T22:02:46.380Z,9.09
2023-05-17T22:05:15.152Z,9.09
2023-05-17T22:07:44.736Z,9.09
2023-05-17T22:10:32.675Z,9.08
2023-05-17T22:13:03.252Z,9.05
2023-05-17T22:15:31.413Z,9.06
2023-05-17T22:17:59.665Z,9.06
2023-05-17T22:20:29.341Z,9.08
2023-05-17T22:22:58.620Z,9.08
2023-05-17T22:25:27.313Z,9.07
2023-05-17T22:27:55.380Z,9.05
2023-05-17T22:30:26.060Z,9.02
2023-05-17T22:32:57.285Z,8.99
2023-05-17T22:35:26.083Z,8.92
2023-05-17T22:37:54.229Z,8.85
2023-05-17T22:40:23.462Z,8.83
2023-05-17T22:42:52.129Z,8.76
2023-05-17T22:45:20.367Z,8.70
2023-05-17T22:47:50.843Z,8.63
2023-05-17T22:50:19.807Z,8.58
2023-05-17T22:52:50.816Z,8.53
2023-05-17T22:55:19.078Z,8.47
2023-05-17T22:57:47.491Z,8.41
2023-05-17T23:00:28.806Z,8.36
2023-05-17T23:02:58.539Z,8.32
2023-05-17T23:05:27.227Z,8.28
2023-05-17T23:07:55.589Z,8.23
2023-05-17T23:10:24.866Z,8.17
2023-05-17T23:12:52.977Z,8.13
2023-05-17T23:15:21.934Z,8.09
2023-05-17T23:17:51.123Z,8.05
2023-05-17T23:20:25.180Z,8.00
2023-05-17T23:22:54.837Z,7.96
2023-05-17T23:25:23.228Z,7.91
2023-05-17T23:27:51.498Z,7.89
2023-05-17T23:30:20.974Z,7.87
2023-05-17T23:32:51.469Z,7.84
2023-05-17T23:35:21.306Z,7.79
2023-05-17T23:37:49.416Z,7.74
2023-05-17T23:40:17.958Z,7.71
2023-05-17T23:42:46.654Z,7.69
2023-05-17T23:45:14.762Z,7.65
2023-05-17T23:47:42.964Z,7.64
2023-05-17T23:50:12.293Z,7.63
2023-05-17T23:52:43.530Z,7.60
2023-05-17T23:55:12.184Z,7.58
2023-05-17T23:57:42.444Z,7.56
